createdAt,value
2023-03-24T00:01:25.620Z,95725.03
2023-03-24T00:03:55.647Z,95717.25
2023-03-24T00:06:26.825Z,95704.16
2023-03-24T00:08:55.454Z,95698.84
2023-03-24T00:11:25.511Z,95695.97
2023-03-24T00:13:58.673Z,95688.19
2023-03-24T00:16:27.515Z,95689.03
2023-03-24T00:18:57.825Z,95678.81
2023-03-24T00:21:26.741Z,95684.34
2023-03-24T00:23:58.297Z,95671.88
2023-03-24T00:26:28.375Z,95658.16
2023-03-24T00:28:57.116Z,95659.41
2023-03-24T00:31:26.144Z,95659.59
2023-03-24T00:33:54.986Z,95650.19
2023-03-24T00:36:29.021Z,95644.06
2023-03-24T00:38:58.134Z,95640.59
2023-03-24T00:41:27.524Z,95638.53
2023-03-24T00:43:58.445Z,95631.56
2023-03-24T00:46:30.961Z,95638.72
2023-03-24T00:49:06.240Z,95632.59
2023-03-24T00:51:38.704Z,95623.41
2023-03-24T00:54:09.255Z,95619.53
2023-03-24T00:56:40.679Z,95619.53
2023-03-24T00:59:10.474Z,95622.38
2023-03-24T01:01:41.242Z,95609.91
2023-03-24T01:04:11.327Z,95607.25
2023-03-24T01:06:41.299Z,95593.94
2023-03-24T01:09:10.600Z,95596.19
2023-03-24T01:11:41.774Z,95584.31
2023-03-24T01:14:10.702Z,95576.13
2023-03-24T01:16:39.227Z,95581.47
2023-03-24T01:19:09.420Z,95576.13
2023-03-24T01:21:38.788Z,95568.38
2023-03-24T01:24:09.117Z,95565.09
2023-03-24T01:26:37.890Z,95556.50
2023-03-24T01:29:06.432Z,95560.19
2023-03-24T01:31:35.001Z,95560.19
2023-03-24T01:34:03.718Z,95560.38
2023-03-24T01:36:32.516Z,95554.06
2023-03-24T01:39:01.478Z,95558.56
2023-03-24T01:41:34.811Z,95556.13
2023-03-24T01:44:23.711Z,95556.75
2023-03-24T01:46:52.655Z,95549.38
2023-03-24T01:49:21.876Z,95545.09
2023-03-24T01:51:54.530Z,95547.56
2023-03-24T01:54:27.505Z,95541.44
2023-03-24T01:57:01.262Z,95535.69
2023-03-24T01:59:33.377Z,95533.47
2023-03-24T02:02:04.023Z,95539.19
2023-03-24T02:04:34.641Z,95534.31
2023-03-24T02:07:09.420Z,95525.72
2023-03-24T02:09:37.888Z,95528.59
2023-03-24T02:12:08.429Z,95525.94
2023-03-24T02:14:37.107Z,95526.13
2023-03-24T02:17:37.317Z,95525.53
2023-03-24T02:20:41.511Z,95530.03
2023-03-24T02:23:48.251Z,95528.56
2023-03-24T02:26:53.218Z,95530.41
2023-03-24T02:30:06.713Z,95521.84
2023-03-24T02:33:14.117Z,95535.31
2023-03-24T02:36:15.438Z,95529.56
2023-03-24T02:39:22.961Z,95536.13
2023-03-24T02:42:07.548Z,95538.97
2023-03-24T02:44:43.141Z,95536.53
2023-03-24T02:47:17.787Z,95536.72
2023-03-24T02:49:53.972Z,95535.53
2023-03-24T02:52:32.955Z,95540.41
2023-03-24T02:55:05.260Z,95539.38
2023-03-24T02:57:39.667Z,95540.63
2023-03-24T03:00:16.021Z,95550.63
2023-03-24T03:02:54.038Z,95546.09
2023-03-24T03:05:27.571Z,95552.84
2023-03-24T03:08:00.134Z,95547.34
2023-03-24T03:10:33.548Z,95560.00
2023-03-24T03:13:08.820Z,95557.31
2023-03-24T03:15:44.096Z,95564.00
2023-03-24T03:18:25.539Z,95563.94
2023-03-24T03:21:00.117Z,95561.00
2023-03-24T03:23:33.620Z,95561.84
2023-03-24T03:26:06.552Z,95561.69
2023-03-24T03:28:43.200Z,95569.88
2023-03-24T03:31:16.155Z,95570.91
2023-03-24T03:33:49.806Z,95575.59
2023-03-24T03:36:24.198Z,95581.34
2023-03-24T03:39:01.752Z,95571.97
2023-03-24T03:41:30.942Z,95581.34
2023-03-24T03:44:04.952Z,95585.66
2023-03-24T03:46:33.815Z,95594.03
2023-03-24T03:49:02.404Z,95591.63
2023-03-24T03:51:31.097Z,95599.38
2023-03-24T03:54:03.408Z,95585.69
2023-03-24T03:56:34.607Z,95591.81
2023-03-24T03:59:04.814Z,95581.41
2023-03-24T04:01:37.452Z,95571.19
2023-03-24T04:04:38.337Z,95576.69
2023-03-24T04:07:16.249Z,95567.72
2023-03-24T04:09:56.126Z,95573.44
2023-03-24T04:12:42.542Z,95577.69
2023-03-24T04:15:25.699Z,95568.69
2023-03-24T04:18:09.362Z,95572.75
2023-03-24T04:20:46.763Z,95567.78
2023-03-24T04:23:40.076Z,95575.53
2023-03-24T04:26:16.184Z,95579.56
2023-03-24T04:28:58.048Z,95572.22
2023-03-24T04:31:34.245Z,95570.56
2023-03-24T04:34:05.859Z,95570.97
2023-03-24T04:36:42.680Z,95558.16
2023-03-24T04:39:16.258Z,95555.94
2023-03-24T04:41:47.380Z,95554.09
2023-03-24T04:44:17.620Z,95551.84
2023-03-24T04:46:47.581Z,95543.28
2023-03-24T04:49:16.006Z,95538.97
2023-03-24T04:51:45.785Z,95537.31
2023-03-24T04:54:14.415Z,95536.94
2023-03-24T04:56:47.621Z,95529.84
2023-03-24T04:59:17.657Z,95517.81
2023-03-24T05:01:49.807Z,95507.44
2023-03-24T05:04:19.026Z,95501.38
2023-03-24T05:06:49.668Z,95510.34
2023-03-24T05:09:19.071Z,95504.25
2023-03-24T05:11:47.408Z,95508.31
2023-03-24T05:14:16.845Z,95489.13
2023-03-24T05:16:45.465Z,95489.72
2023-03-24T05:19:15.639Z,95483.41
2023-03-24T05:21:44.190Z,95489.94
2023-03-24T05:24:13.406Z,95488.09
2023-03-24T05:26:41.731Z,95483.41
2023-03-24T05:29:11.004Z,95483.81
2023-03-24T05:31:39.343Z,95491.41
2023-03-24T05:34:07.688Z,95481.19
2023-03-24T05:36:38.416Z,95478.09
2023-03-24T05:39:06.779Z,95479.56
2023-03-24T05:41:35.463Z,95489.94
2023-03-24T05:44:04.199Z,95493.22
2023-03-24T05:46:32.822Z,95489.56
2023-03-24T05:49:01.181Z,95498.13
2023-03-24T05:51:29.509Z,95489.16
2023-03-24T05:53:59.298Z,95487.13
2023-03-24T05:56:28.223Z,95500.16
2023-03-24T05:58:56.636Z,95491.38
2023-03-24T06:01:25.392Z,95494.03
2023-03-24T06:03:55.606Z,95485.88
2023-03-24T06:06:24.102Z,95506.13
2023-03-24T06:08:54.923Z,95510.19
2023-03-24T06:11:24.606Z,95497.72
2023-03-24T06:13:59.181Z,95502.84
2023-03-24T06:16:27.690Z,95492.81
2023-03-24T06:18:56.273Z,95484.84
2023-03-24T06:21:33.141Z,95496.69
2023-03-24T06:24:03.769Z,95490.38
2023-03-24T06:26:33.801Z,95486.69
2023-03-24T06:29:06.930Z,95491.19
2023-03-24T06:31:37.302Z,95489.75
2023-03-24T06:34:06.477Z,95494.03
2023-03-24T06:36:35.677Z,95498.13
2023-03-24T06:39:05.781Z,95493.63
2023-03-24T06:41:35.664Z,95494.22
2023-03-24T06:44:04.023Z,95486.25
2023-03-24T06:46:32.538Z,95491.38
2023-03-24T06:49:00.994Z,95491.19
2023-03-24T06:51:29.505Z,95492.22
2023-03-24T06:53:58.020Z,95489.94
2023-03-24T06:56:27.432Z,95487.50
2023-03-24T06:58:57.684Z,95479.13
2023-03-24T07:01:26.343Z,95490.16
2023-03-24T07:03:56.684Z,95464.19
2023-03-24T07:14:01.294Z,95468.22
2023-03-24T07:16:29.751Z,95473.13
2023-03-24T07:18:58.171Z,95474.34
2023-03-24T07:21:26.889Z,95471.47
2023-03-24T07:23:55.676Z,95468.63
2023-03-24T07:26:24.134Z,95469.81
2023-03-24T07:28:52.571Z,95471.84
2023-03-24T07:31:23.055Z,95467.31
2023-03-24T07:33:51.883Z,95460.94
2023-03-24T07:36:20.765Z,95450.88
2023-03-24T07:38:49.850Z,95448.19
2023-03-24T07:41:18.441Z,95438.34
2023-03-24T07:43:46.875Z,95441.97
2023-03-24T07:46:15.609Z,95450.94
2023-03-24T07:48:45.787Z,95455.44
2023-03-24T07:51:14.376Z,95456.19
2023-03-24T07:53:45.752Z,95465.16
2023-03-24T07:56:14.287Z,95468.22
2023-03-24T07:58:42.674Z,95470.66
2023-03-24T08:01:16.369Z,95453.47
2023-03-24T08:03:49.345Z,95457.53
2023-03-24T08:06:17.933Z,95480.47
2023-03-24T08:08:46.309Z,95481.72
2023-03-24T08:11:14.684Z,95492.59
2023-03-24T08:13:43.114Z,95513.69
2023-03-24T08:16:11.581Z,95517.34
2023-03-24T08:18:40.022Z,95503.81
2023-03-24T08:21:09.984Z,95499.38
2023-03-24T08:23:38.440Z,95512.88
2023-03-24T08:26:07.361Z,95518.19
2023-03-24T08:28:35.972Z,95520.25
2023-03-24T08:31:04.722Z,95518.66
2023-03-24T08:33:33.142Z,95513.75
2023-03-24T08:36:01.657Z,95519.44
2023-03-24T08:38:31.740Z,95532.94
2023-03-24T08:41:02.148Z,95537.03
2023-03-24T08:43:32.362Z,95525.13
2023-03-24T08:46:02.265Z,95549.28
2023-03-24T08:48:32.859Z,95565.88
2023-03-24T08:51:01.285Z,95565.03
2023-03-24T08:53:31.105Z,95566.50
2023-03-24T08:55:59.686Z,95561.63
2023-03-24T08:58:28.093Z,95569.78
2023-03-24T09:00:56.876Z,95587.78
2023-03-24T09:03:26.209Z,95607.84
2023-03-24T09:05:58.405Z,95614.81
2023-03-24T09:08:28.726Z,95604.59
2023-03-24T09:10:58.708Z,95621.34
2023-03-24T09:13:27.360Z,95617.88
2023-03-24T09:16:00.651Z,95619.91
2023-03-24T09:18:29.887Z,95621.72
2023-03-24T09:20:58.304Z,95616.75
2023-03-24T09:23:29.195Z,95612.59
2023-03-24T09:26:00.207Z,95612.72
2023-03-24T09:28:28.752Z,95621.91
2023-03-24T09:31:01.354Z,95614.44
2023-03-24T09:33:30.643Z,95627.94
2023-03-24T09:36:00.917Z,95636.69
2023-03-24T09:38:29.937Z,95632.94
2023-03-24T09:41:03.282Z,95630.03
2023-03-24T09:43:39.728Z,95625.22
2023-03-24T09:46:15.336Z,95619.84
2023-03-24T09:48:48.298Z,95616.13
2023-03-24T09:51:23.479Z,95623.63
2023-03-24T09:53:58.014Z,95626.22
2023-03-24T09:56:29.727Z,95622.06
2023-03-24T09:59:05.474Z,95632.06
2023-03-24T10:01:35.302Z,95638.38
2023-03-24T10:04:05.264Z,95641.66
2023-03-24T10:06:39.971Z,95650.03
2023-03-24T10:09:19.254Z,95652.50
2023-03-24T10:11:58.956Z,95662.16
2023-03-24T10:14:42.426Z,95663.75
2023-03-24T10:17:19.303Z,95660.91
2023-03-24T10:19:59.314Z,95643.38
2023-03-24T10:22:33.854Z,95655.94
2023-03-24T10:25:09.754Z,95664.59
2023-03-24T10:27:44.371Z,95666.91
2023-03-24T10:30:18.120Z,95672.28
2023-03-24T10:32:47.436Z,95680.94
2023-03-24T10:35:19.305Z,95684.47
2023-03-24T10:37:47.876Z,95694.94
2023-03-24T10:40:18.678Z,95686.16
2023-03-24T10:43:07.211Z,95695.63
2023-03-24T10:45:42.054Z,95700.78
2023-03-24T10:48:12.874Z,95701.84
2023-03-24T10:50:44.624Z,95709.84
2023-03-24T10:53:21.008Z,95715.16
2023-03-24T10:55:50.747Z,95714.75
2023-03-24T10:58:30.966Z,95705.69
2023-03-24T11:01:01.755Z,95708.56
2023-03-24T11:03:32.869Z,95706.28
2023-03-24T11:06:02.939Z,95713.41
2023-03-24T11:08:35.657Z,95705.56
2023-03-24T11:11:15.757Z,95708.22
2023-03-24T11:13:57.046Z,95707.72
2023-03-24T11:16:29.937Z,95705.84
2023-03-24T11:19:01.289Z,95719.19
2023-03-24T11:21:30.719Z,95723.88
2023-03-24T11:24:00.511Z,95725.94
2023-03-24T11:26:32.145Z,95727.28
2023-03-24T11:29:06.413Z,95728.97
2023-03-24T11:31:39.343Z,95711.31
2023-03-24T11:34:11.571Z,95715.63
2023-03-24T11:36:45.430Z,95728.75
2023-03-24T11:39:19.250Z,95733.91
2023-03-24T11:42:12.137Z,95732.88
2023-03-24T11:44:51.280Z,95732.41
2023-03-24T11:47:25.724Z,95724.03
2023-03-24T11:50:04.957Z,95725.91
2023-03-24T11:52:37.331Z,95728.38
2023-03-24T11:55:15.881Z,95727.56
2023-03-24T11:57:52.524Z,95728.63
2023-03-24T12:00:29.185Z,95723.56
2023-03-24T12:03:33.599Z,95719.47
2023-03-24T12:06:16.625Z,95718.22
2023-03-24T12:08:59.238Z,95714.53
2023-03-24T12:11:40.854Z,95699.38
2023-03-24T12:14:10.536Z,95696.88
2023-03-24T12:16:51.960Z,95695.66
2023-03-24T12:19:43.611Z,95692.53
2023-03-24T12:22:23.020Z,95683.31
2023-03-24T12:25:16.054Z,95689.66
2023-03-24T12:27:53.416Z,95688.03
2023-03-24T12:30:43.528Z,95675.31
2023-03-24T12:33:33.992Z,95668.53
2023-03-24T12:36:17.130Z,95659.88
2023-03-24T12:39:01.178Z,95654.34
2023-03-24T12:41:43.317Z,95636.22
2023-03-24T12:44:38.010Z,95618.69
2023-03-24T12:47:19.898Z,95601.41
2023-03-24T12:50:02.761Z,95601.34
2023-03-24T12:53:05.010Z,95595.38
2023-03-24T12:55:44.189Z,95607.25
2023-03-24T12:58:18.138Z,95606.78
2023-03-24T13:01:00.465Z,95609.25
2023-03-24T13:03:35.291Z,95606.78
2023-03-24T13:06:17.823Z,95598.19
2023-03-24T13:09:00.770Z,95602.50
2023-03-24T13:11:36.586Z,95614.19
2023-03-24T13:14:08.136Z,95612.59
2023-03-24T13:16:38.965Z,95619.53
2023-03-24T13:19:17.714Z,95613.31
2023-03-24T13:21:48.994Z,95617.34
2023-03-24T13:24:20.124Z,95620.53
2023-03-24T13:26:55.995Z,95614.09
2023-03-24T13:29:49.930Z,95604.53
2023-03-24T13:32:30.186Z,95594.66
2023-03-24T13:35:02.917Z,95587.56
2023-03-24T13:37:49.231Z,95578.28
2023-03-24T13:40:23.601Z,95574.63
2023-03-24T13:42:55.998Z,95570.66
2023-03-24T13:45:43.925Z,95572.16
2023-03-24T13:48:27.168Z,95571.44
2023-03-24T13:51:00.325Z,95571.69
2023-03-24T13:53:36.802Z,95563.09
2023-03-24T13:56:08.114Z,95556.91
2023-03-24T13:58:48.975Z,95562.47
2023-03-24T14:01:32.789Z,95558.63
2023-03-24T14:04:23.777Z,95562.34
2023-03-24T14:06:53.647Z,95552.88
2023-03-24T14:09:25.882Z,95547.53
2023-03-24T14:12:13.014Z,95559.06
2023-03-24T14:15:16.268Z,95547.53
2023-03-24T14:17:47.356Z,95552.47
2023-03-24T14:20:33.758Z,95555.97
2023-03-24T14:23:04.417Z,95547.94
2023-03-24T14:25:36.815Z,95549.03
2023-03-24T14:28:22.325Z,95545.19
2023-03-24T14:31:10.064Z,95539.06
2023-03-24T14:33:39.060Z,95533.34
2023-03-24T14:36:12.072Z,95540.63
2023-03-24T14:38:43.258Z,95529.13
2023-03-24T14:41:16.995Z,95530.41
2023-03-24T14:44:01.609Z,95523.91
2023-03-24T14:46:42.561Z,95529.47
2023-03-24T14:49:23.510Z,95531.16
2023-03-24T14:51:59.089Z,95513.50
2023-03-24T14:54:34.934Z,95510.25
2023-03-24T14:57:06.246Z,95515.25
2023-03-24T14:59:46.676Z,95508.72
2023-03-24T15:02:26.362Z,95506.72
2023-03-24T15:05:26.207Z,95507.16
2023-03-24T15:08:11.818Z,95511.09
2023-03-24T15:10:44.916Z,95505.03
2023-03-24T15:13:32.610Z,95507.78
2023-03-24T15:16:04.634Z,95519.22
2023-03-24T15:18:33.342Z,95521.59
2023-03-24T15:21:14.369Z,95514.53
2023-03-24T15:23:48.367Z,95512.66
2023-03-24T15:26:18.514Z,95525.88
2023-03-24T15:28:48.375Z,95513.06
2023-03-24T15:31:17.289Z,95524.16
2023-03-24T15:33:47.054Z,95529.72
2023-03-24T15:36:18.817Z,95532.00
2023-03-24T15:38:50.019Z,95537.75
2023-03-24T15:41:20.109Z,95552.56
2023-03-24T15:43:53.451Z,95555.69
2023-03-24T15:46:27.048Z,95571.75
2023-03-24T15:48:57.645Z,95600.28
2023-03-24T15:51:48.826Z,95613.19
2023-03-24T15:54:22.475Z,95620.91
2023-03-24T15:57:18.943Z,95616.22
2023-03-24T15:59:51.151Z,95618.69
2023-03-24T16:02:29.179Z,95615.25
2023-03-24T16:05:10.874Z,95625.25
2023-03-24T16:07:42.489Z,95628.53
2023-03-24T16:10:33.089Z,95639.56
2023-03-24T16:13:14.448Z,95643.44
2023-03-24T16:15:46.169Z,95655.28
2023-03-24T16:18:21.587Z,95655.66
2023-03-24T16:20:51.843Z,95653.81
2023-03-24T16:23:20.509Z,95659.53
2023-03-24T16:25:48.944Z,95666.88
2023-03-24T16:28:19.906Z,95666.44
2023-03-24T16:30:54.527Z,95670.75
2023-03-24T16:33:23.420Z,95690.16
2023-03-24T16:35:51.821Z,95690.34
2023-03-24T16:38:21.768Z,95713.00
2023-03-24T16:40:52.485Z,95715.44
2023-03-24T16:43:21.348Z,95727.25
2023-03-24T16:45:52.138Z,95730.06
2023-03-24T16:48:20.720Z,95737.75
2023-03-24T16:50:53.369Z,95739.31
2023-03-24T16:53:22.122Z,95750.69
2023-03-24T16:55:50.783Z,95747.41
2023-03-24T16:58:19.294Z,95738.41
2023-03-24T17:00:49.178Z,95743.53
2023-03-24T17:03:19.369Z,95747.81
2023-03-24T17:05:51.413Z,95733.53
2023-03-24T17:08:20.241Z,95740.69
2023-03-24T17:10:53.164Z,95750.22
2023-03-24T17:13:23.106Z,95740.78
2023-03-24T17:15:52.013Z,95744.88
2023-03-24T17:18:22.011Z,95737.94
2023-03-24T17:20:50.586Z,95739.56
2023-03-24T17:23:19.576Z,95739.00
2023-03-24T17:25:47.992Z,95738.59
2023-03-24T17:28:17.888Z,95740.06
2023-03-24T17:30:46.713Z,95738.84
2023-03-24T17:33:15.856Z,95733.72
2023-03-24T17:35:46.957Z,95729.03
2023-03-24T17:38:16.674Z,95723.94
2023-03-24T17:40:46.521Z,95728.81
2023-03-24T17:43:15.507Z,95729.97
2023-03-24T17:45:43.984Z,95725.66
2023-03-24T17:48:12.341Z,95721.94
2023-03-24T17:50:41.855Z,95710.25
2023-03-24T17:53:13.639Z,95702.91
2023-03-24T17:55:42.179Z,95698.38
2023-03-24T17:58:10.700Z,95710.72
2023-03-24T18:00:39.383Z,95706.41
2023-03-24T18:03:07.972Z,95708.06
2023-03-24T18:05:36.328Z,95708.88
2023-03-24T18:08:07.184Z,95709.69
2023-03-24T18:10:37.557Z,95704.59
2023-03-24T18:13:06.890Z,95704.59
2023-03-24T18:15:35.900Z,95715.00
2023-03-24T18:18:04.872Z,95706.03
2023-03-24T18:20:33.278Z,95691.13
2023-03-24T18:23:02.022Z,95693.78
2023-03-24T18:25:30.798Z,95689.69
2023-03-24T18:28:00.632Z,95689.88
2023-03-24T18:30:30.744Z,95695.59
2023-03-24T18:33:02.067Z,95697.63
2023-03-24T18:35:30.545Z,95688.78
2023-03-24T18:37:59.066Z,95706.09
2023-03-24T18:40:27.585Z,95694.84
2023-03-24T18:42:56.099Z,95690.75
2023-03-24T18:45:26.061Z,95697.63
2023-03-24T18:47:54.457Z,95694.56
2023-03-24T18:50:22.837Z,95693.09
2023-03-24T18:52:51.260Z,95692.84
2023-03-24T18:55:20.796Z,95681.63
2023-03-24T18:57:49.205Z,95680.16
2023-03-24T19:00:21.931Z,95689.13
2023-03-24T19:02:52.327Z,95691.78
2023-03-24T19:05:20.836Z,95691.97
2023-03-24T19:07:52.053Z,95686.50
2023-03-24T19:10:20.466Z,95685.28
2023-03-24T19:12:48.896Z,95690.00
2023-03-24T19:15:19.488Z,95684.50
2023-03-24T19:17:47.849Z,95677.41
2023-03-24T19:20:17.928Z,95689.44
2023-03-24T19:22:46.623Z,95695.72
2023-03-24T19:25:16.084Z,95701.03
2023-03-24T19:27:44.850Z,95693.31
2023-03-24T19:30:14.286Z,95688.19
2023-03-24T19:32:42.740Z,95685.09
2023-03-24T19:35:11.493Z,95681.63
2023-03-24T19:37:49.027Z,95685.72
2023-03-24T19:40:17.474Z,95697.13
2023-03-24T19:42:46.715Z,95696.75
2023-03-24T19:45:17.194Z,95713.66
2023-03-24T19:47:46.960Z,95710.38
2023-03-24T19:50:17.533Z,95699.78
2023-03-24T19:52:46.092Z,95701.63
2023-03-24T19:55:16.090Z,95687.16
2023-03-24T19:57:47.588Z,95704.88
2023-03-24T20:00:16.971Z,95711.06
2023-03-24T20:02:45.790Z,95722.31
2023-03-24T20:05:14.782Z,95730.44
2023-03-24T20:07:43.252Z,95747.53
2023-03-24T20:10:12.092Z,95755.22
2023-03-24T20:12:41.972Z,95761.47
2023-03-24T20:15:11.002Z,95758.44
2023-03-24T20:17:40.627Z,95764.06
2023-03-24T20:20:11.816Z,95771.06
2023-03-24T20:22:42.068Z,95779.19
2023-03-24T20:25:11.662Z,95782.03
2023-03-24T20:27:42.094Z,95791.25
2023-03-24T20:30:11.492Z,95789.78
2023-03-24T20:32:40.433Z,95800.66
2023-03-24T20:35:09.504Z,95800.09
2023-03-24T20:37:38.159Z,95800.91
2023-03-24T20:40:09.676Z,95800.91
2023-03-24T20:42:38.579Z,95797.81
2023-03-24T20:45:10.079Z,95784.19
2023-03-24T20:47:38.524Z,95777.13
2023-03-24T20:50:08.376Z,95763.47
2023-03-24T20:52:36.854Z,95764.50
2023-03-24T20:55:08.769Z,95750.19
2023-03-24T20:57:38.034Z,95754.44
2023-03-24T21:00:14.315Z,95760.16
2023-03-24T21:02:43.809Z,95753.16
2023-03-24T21:05:12.387Z,95735.38
2023-03-24T21:07:43.909Z,95719.03
2023-03-24T21:10:13.007Z,95679.66
2023-03-24T21:12:52.755Z,95693.72
2023-03-24T21:15:26.236Z,95704.13
2023-03-24T21:17:54.852Z,95721.47
2023-03-24T21:20:26.781Z,95730.69
2023-03-24T21:22:55.913Z,95736.38
2023-03-24T21:25:30.621Z,95740.66
2023-03-24T21:28:00.024Z,95738.19
2023-03-24T21:30:30.778Z,95741.03
2023-03-24T21:33:00.788Z,95753.47
2023-03-24T21:35:30.177Z,95765.81
2023-03-24T21:38:09.527Z,95762.72
2023-03-24T21:40:38.009Z,95768.41
2023-03-24T21:43:06.949Z,95765.31
2023-03-24T21:45:37.767Z,95761.19
2023-03-24T21:48:12.977Z,95765.50
2023-03-24T21:50:42.779Z,95752.81
2023-03-24T21:53:15.054Z,95747.91
2023-03-24T21:55:51.010Z,95761.13
2023-03-24T21:58:20.478Z,95763.22
2023-03-24T22:00:52.167Z,95761.47
2023-03-24T22:03:21.793Z,95767.56
2023-03-24T22:05:51.699Z,95771.59
2023-03-24T22:08:22.756Z,95771.41
2023-03-24T22:10:54.359Z,95773.31
2023-03-24T22:13:23.109Z,95770.03
2023-03-24T22:15:56.072Z,95779.00
2023-03-24T22:18:24.736Z,95774.34
2023-03-24T22:20:54.461Z,95779.25
2023-03-24T22:23:23.185Z,95779.88
2023-03-24T22:25:53.035Z,95777.22
2023-03-24T22:28:21.921Z,95772.94
2023-03-24T22:30:50.518Z,95774.56
2023-03-24T22:33:20.360Z,95768.81
2023-03-24T22:35:49.102Z,95776.91
2023-03-24T22:38:18.003Z,95769.06
2023-03-24T22:40:46.374Z,95780.97
2023-03-24T22:43:14.735Z,95780.09
2023-03-24T22:45:43.636Z,95785.91
2023-03-24T22:48:12.758Z,95798.69
2023-03-24T22:50:42.805Z,95798.91
2023-03-24T22:53:11.965Z,95798.91
2023-03-24T22:55:42.019Z,95798.06
2023-03-24T22:58:13.668Z,95808.00
2023-03-24T23:00:43.565Z,95808.22
2023-03-24T23:03:12.213Z,95810.41
2023-03-24T23:05:42.524Z,95815.25
2023-03-24T23:08:11.776Z,95821.06
2023-03-24T23:10:41.566Z,95820.25
2023-03-24T23:13:10.530Z,95818.44
2023-03-24T23:15:39.824Z,95820.25
2023-03-24T23:18:08.444Z,95816.50
2023-03-24T23:20:37.738Z,95820.06
2023-03-24T23:23:09.551Z,95806.38
2023-03-24T23:25:42.465Z,95799.81
2023-03-24T23:28:11.133Z,95808.78
2023-03-24T23:30:40.497Z,95809.50
2023-03-24T23:33:09.311Z,95815.06
2023-03-24T23:35:38.633Z,95821.59
2023-03-24T23:38:09.145Z,95820.63
2023-03-24T23:40:37.538Z,95823.47
2023-03-24T23:43:08.241Z,95821.94
2023-03-24T23:45:36.774Z,95832.00
2023-03-24T23:48:06.907Z,95834.47
2023-03-24T23:50:35.345Z,95822.69
2023-03-24T23:53:03.746Z,95818.22
2023-03-24T23:55:33.782Z,95828.47
2023-03-24T23:58:02.265Z,95829.91
